Historique des mesures à Cassis (13260), France
Quotidien Résumé Aout 7, 2021 Unités:  Métrique/US    US   Métrique
Quotidien Hebdomadaire Mensuel Annuel
  Maximum: Minimum: Moyenne:
Température: 83.8 °F /  28.8 °C 63.1 °F /  17.3 °C 74.1 °F /  23.4 °C
Point de rosée: 62.6 °F /  17 °C 54.3 °F /  12.4 °C 58.3 °F /  14.6 °C
Humidité: 74% 48% 59%
Vitesse du vent: 7mph /  11.2km/h - 3.5mph /  5.6km/h
Rafales: 21.2mph /  34.2km/h - -
Vent- - SW
Pression: 30 in /  1015.4 hPa 29.9 in /  1012.7 hPa -
Précipitations: 0 in /  0.0 mm    
Historical Graphs
 
 
Mesures pour : Aout 7, 2021
Heure Temperature Point de rosée Pression Vent Vitesse du vent Rafales Humidité Pluie (par heure)
00:10 68.7 °F /  20.4 °C 54.3 °F /  12.4 °C 29.9in /  1013.2hPa WNW 4mph /  6.5km/h 6.7mph /  10.8km/h 60% 0in /  0.0mm
01:10 66.9 °F /  19.4 °C 54.3 °F /  12.4 °C 29.9in /  1012.8hPa NW 5.2mph /  8.3km/h 13mph /  20.9km/h 64% 0in /  0.0mm
02:10 66 °F /  18.9 °C 54.3 °F /  12.4 °C 29.9in /  1012.9hPa Calm   8.5mph /  13.7km/h 66% 0in /  0.0mm
03:10 65.5 °F /  18.6 °C 54.7 °F /  12.6 °C 29.9in /  1012.7hPa West 1.6mph /  2.5km/h 4.7mph /  7.6km/h 68% 0in /  0.0mm
04:10 64.2 °F /  17.9 °C 54.3 °F /  12.4 °C 29.9in /  1013.0hPa North 4.5mph /  7.2km/h 5.8mph /  9.4km/h 70% 0in /  0.0mm
05:10 64 °F /  17.8 °C 54.9 °F /  12.7 °C 29.9in /  1013.0hPa WNW 6mph /  9.7km/h 9.8mph /  15.8km/h 72% 0in /  0.0mm
06:10 63.1 °F /  17.3 °C 54.3 °F /  12.4 °C 29.9in /  1013.5hPa NNW 3.6mph /  5.8km/h 9.2mph /  14.8km/h 73% 0in /  0.0mm
07:10 63.3 °F /  17.4 °C 54.9 °F /  12.7 °C 29.9in /  1013.9hPa WNW 5.2mph /  8.3km/h 6.3mph /  10.1km/h 74% 0in /  0.0mm
08:10 79.5 °F /  26.4 °C 60.8 °F /  16 °C 29.9in /  1014.1hPa Calm   2.9mph /  4.7km/h 53% 0in /  0.0mm
09:10 74.3 °F /  23.5 °C 58.5 °F /  14.7 °C 30in /  1014.7hPa Calm   2.5mph /  4km/h 58% 0in /  0.0mm
10:10 75 °F /  23.9 °C 60.6 °F /  15.9 °C 30in /  1015.0hPa SSW 0.9mph /  1.4km/h 2.5mph /  4km/h 61% 0in /  0.0mm
11:11 79 °F /  26.1 °C 62.4 °F /  16.9 °C 30in /  1015.3hPa SE 4mph /  6.5km/h 6.3mph /  10.1km/h 57% 0in /  0.0mm
12:10 81.3 °F /  27.4 °C 62.4 °F /  16.9 °C 30in /  1015.3hPa SSE 2.5mph /  4km/h 4.7mph /  7.6km/h 53% 0in /  0.0mm
13:10 82.2 °F /  27.9 °C 62.2 °F /  16.8 °C 30in /  1015.4hPa ESE 4.5mph /  7.2km/h 8.1mph /  13km/h 51% 0in /  0.0mm
14:10 83.1 °F /  28.4 °C 62.6 °F /  17 °C 30in /  1014.8hPa ESE 3.8mph /  6.1km/h 8.3mph /  13.3km/h 50% 0in /  0.0mm
15:10 82.9 °F /  28.3 °C 61.2 °F /  16.2 °C 30in /  1014.6hPa SSW 5.8mph /  9.4km/h 11.9mph /  19.1km/h 48% 0in /  0.0mm
16:10 83.8 °F /  28.8 °C 62.1 °F /  16.7 °C 29.9in /  1013.9hPa South 2.5mph /  4km/h 6.7mph /  10.8km/h 48% 0in /  0.0mm
17:10 81.7 °F /  27.6 °C 60.6 °F /  15.9 °C 29.9in /  1013.9hPa Calm   9.2mph /  14.8km/h 49% 0in /  0.0mm
18:10 79.7 °F /  26.5 °C 59.5 °F /  15.3 °C 29.9in /  1013.5hPa WSW 3.6mph /  5.8km/h 12.1mph /  19.4km/h 50% 0in /  0.0mm
19:10 77.9 °F /  25.5 °C 58.3 °F /  14.6 °C 29.9in /  1013.3hPa WSW 3.6mph /  5.8km/h 14.3mph /  23km/h 51% 0in /  0.0mm
20:10 76.8 °F /  24.9 °C 58.5 °F /  14.7 °C 29.9in /  1013.3hPa WSW 6.7mph /  10.8km/h 11.6mph /  18.7km/h 53% 0in /  0.0mm
21:10 74.5 °F /  23.6 °C 57.2 °F /  14 °C 29.9in /  1013.6hPa NW 2.5mph /  4km/h 7.4mph /  11.9km/h 55% 0in /  0.0mm
22:11 73.2 °F /  22.9 °C 57.6 °F /  14.2 °C 29.9in /  1014.0hPa WSW 6.3mph /  10.1km/h 21.2mph /  34.2km/h 58% 0in /  0.0mm
23:10 71.8 °F /  22.1 °C 57.6 °F /  14.2 °C 30in /  1014.4hPa NNW 7mph /  11.2km/h 14.1mph /  22.7km/h 61% 0in /  0.0mm
Observations météo à CASSIS
WU-History script by Weather Underground - 2 mb